Time;durP1;ratioP1;P1;durP2;ratioP2;P2;SDS_P1;SDS_P2;PMS_P1;PMS_P2;Temp;Humidity;BMP_temperature;BMP_pressure;BME280_temperature;BME280_humidity;BME280_pressure;Samples;Min_cycle;Max_cycle;Signal;HPM_P1;HPM_P2
2024/01/10 05:00:40;;;;;;;3.27;3.07;;;-9.80;97.30;;;;;;5954104;23;20238;-88
2024/01/10 05:03:06;;;;;;;3.50;3.30;;;-9.80;97.30;;;;;;4997988;28;20446;-87
2024/01/10 05:05:31;;;;;;;4.20;2.87;;;-9.80;97.30;;;;;;4985845;28;20191;-87
2024/01/10 05:07:57;;;;;;;2.60;2.40;;;-9.80;97.30;;;;;;4986249;28;20864;-87
2024/01/10 05:10:22;;;;;;;2.50;2.30;;;-9.80;97.30;;;;;;4988383;28;20249;-87
2024/01/10 05:12:48;;;;;;;12.33;3.80;;;-9.80;97.30;;;;;;4979325;28;20187;-86
2024/01/10 05:15:14;;;;;;;4.13;3.37;;;-9.80;97.30;;;;;;4977404;28;20210;-85
2024/01/10 05:17:40;;;;;;;3.67;3.47;;;-9.80;97.30;;;;;;4977236;28;20538;-86
2024/01/10 05:20:06;;;;;;;2.27;2.07;;;-9.80;97.30;;;;;;4977317;28;20437;-85
2024/01/10 05:22:32;;;;;;;3.33;1.90;;;-9.90;97.30;;;;;;4978243;28;20333;-86
2024/01/10 05:24:57;;;;;;;5.20;3.87;;;-9.90;97.30;;;;;;4975100;28;20483;-87
2024/01/10 05:27:23;;;;;;;2.13;1.97;;;-9.90;97.30;;;;;;4977261;28;20253;-86
2024/01/10 05:29:48;;;;;;;2.83;1.80;;;-10.00;97.30;;;;;;4978826;28;20186;-85
2024/01/10 05:32:14;;;;;;;3.37;3.17;;;-10.00;97.30;;;;;;4980688;28;20218;-85
2024/01/10 05:34:39;;;;;;;2.73;2.57;;;-10.00;97.30;;;;;;4979269;28;20676;-87
2024/01/10 05:37:05;;;;;;;2.13;1.97;;;-10.00;97.30;;;;;;4991134;28;20196;-86
2024/01/10 05:39:30;;;;;;;5.53;1.50;;;-10.00;97.30;;;;;;4977592;28;20390;-86
2024/01/10 05:41:56;;;;;;;3.37;2.57;;;-10.00;97.30;;;;;;4977589;28;20257;-85
2024/01/10 05:44:21;;;;;;;2.80;2.60;;;-10.00;97.30;;;;;;4978011;28;20688;-88
2024/01/10 05:46:47;;;;;;;4.30;4.07;;;-10.10;97.30;;;;;;4977260;28;20253;-86
2024/01/10 05:49:13;;;;;;;2.53;2.33;;;-10.10;97.30;;;;;;4979292;28;20182;-86
2024/01/10 05:51:38;;;;;;;3.63;2.90;;;-10.10;97.30;;;;;;4992777;28;20445;-87
2024/01/10 05:54:04;;;;;;;2.23;2.07;;;-10.10;97.30;;;;;;4983477;28;20181;-87
2024/01/10 05:56:30;;;;;;;3.03;2.83;;;-10.10;97.30;;;;;;4979213;28;20191;-86
2024/01/10 05:58:55;;;;;;;2.17;2.00;;;-10.10;97.30;;;;;;4975824;28;20281;-87
2024/01/10 06:01:20;;;;;;;6.20;3.00;;;-10.10;97.30;;;;;;4983208;28;20230;-87
2024/01/10 06:03:46;;;;;;;5.10;3.90;;;-10.10;97.30;;;;;;4977350;28;20187;-87
2024/01/10 06:06:11;;;;;;;16.63;2.90;;;-10.10;97.30;;;;;;4976102;28;20183;-86
2024/01/10 06:08:37;;;;;;;1.70;1.60;;;-10.10;97.30;;;;;;4977096;28;20233;-87
2024/01/10 06:11:08;;;;;;;1.40;1.30;;;-10.10;97.30;;;;;;4976971;28;20237;-86
2024/01/10 06:13:34;;;;;;;2.40;2.20;;;-10.10;97.30;;;;;;4977254;28;20511;-87
2024/01/10 06:16:00;;;;;;;2.00;1.90;;;-10.10;97.30;;;;;;4992621;28;20426;-87
2024/01/10 06:18:25;;;;;;;3.13;2.60;;;-10.10;97.30;;;;;;4994504;28;20455;-88
2024/01/10 06:20:51;;;;;;;1.33;1.23;;;-10.10;97.30;;;;;;4985612;28;20390;-87
2024/01/10 06:23:17;;;;;;;4.50;2.50;;;-10.10;97.30;;;;;;4980177;28;20341;-86
2024/01/10 06:25:42;;;;;;;8.90;5.33;;;-10.10;97.30;;;;;;4978739;28;20190;-85
2024/01/10 06:28:08;;;;;;;7.13;3.87;;;-10.10;97.30;;;;;;4979081;28;20466;-87
2024/01/10 06:30:35;;;;;;;3.67;3.47;;;-10.10;97.30;;;;;;4976228;28;20249;-88
2024/01/10 06:33:00;;;;;;;2.47;2.27;;;-10.10;97.30;;;;;;4975414;28;20172;-86
2024/01/10 06:35:26;;;;;;;3.00;2.80;;;-10.10;97.30;;;;;;4976853;28;20425;-87
2024/01/10 06:37:52;;;;;;;18.83;3.43;;;-10.10;97.30;;;;;;4974405;28;20183;-86
2024/01/10 06:40:18;;;;;;;3.60;3.00;;;-10.10;97.30;;;;;;4976817;28;20211;-86
2024/01/10 06:42:43;;;;;;;1.50;1.40;;;-10.10;97.30;;;;;;4975188;28;20534;-87
2024/01/10 06:45:11;;;;;;;2.50;2.30;;;-10.10;97.30;;;;;;4975776;28;20181;-86
2024/01/10 06:47:37;;;;;;;4.30;2.03;;;-10.10;97.30;;;;;;4975480;28;20210;-87
2024/01/10 06:50:05;;;;;;;2.07;1.93;;;-10.10;97.30;;;;;;4976064;28;20483;-87
2024/01/10 06:52:31;;;;;;;3.80;1.83;;;-10.10;97.30;;;;;;4976871;28;20280;-83
2024/01/10 06:54:57;;;;;;;7.00;3.53;;;-10.20;97.30;;;;;;4978323;28;20427;-82
2024/01/10 06:57:22;;;;;;;1.30;1.20;;;-10.20;97.30;;;;;;4979791;28;20189;-84
2024/01/10 06:59:48;;;;;;;1.43;1.33;;;-10.20;97.30;;;;;;4976482;28;20850;-86
2024/01/10 07:02:14;;;;;;;4.30;2.97;;;-10.20;97.30;;;;;;4984454;28;20646;-85
2024/01/10 07:04:40;;;;;;;2.23;2.03;;;-10.20;97.30;;;;;;4978618;28;20187;-86
2024/01/10 07:07:08;;;;;;;1.57;1.47;;;-10.20;97.30;;;;;;4977285;28;21022;-88
2024/01/10 07:09:33;;;;;;;2.30;2.10;;;-10.20;97.30;;;;;;4979116;28;20190;-84
2024/01/10 07:11:59;;;;;;;1.77;1.67;;;-10.20;97.30;;;;;;4980800;28;20445;-80
2024/01/10 07:14:25;;;;;;;2.17;1.97;;;-10.20;97.30;;;;;;4977280;28;20179;-86
2024/01/10 07:16:51;;;;;;;2.90;2.70;;;-10.20;97.30;;;;;;4981491;28;20181;-86
2024/01/10 07:19:17;;;;;;;1.70;1.60;;;-10.20;97.30;;;;;;4986346;28;20261;-87
2024/01/10 07:21:43;;;;;;;1.10;1.00;;;-10.20;97.30;;;;;;4986911;28;20473;-86
2024/01/10 07:24:09;;;;;;;3.33;1.70;;;-10.20;97.30;;;;;;4976117;28;20187;-86
2024/01/10 07:26:36;;;;;;;2.87;2.67;;;-10.20;97.30;;;;;;4973101;28;20206;-86
2024/01/10 07:29:02;;;;;;;3.50;2.60;;;-10.20;97.30;;;;;;4985773;28;20463;-86
2024/01/10 07:31:29;;;;;;;3.10;2.90;;;-10.20;97.30;;;;;;4979130;28;20502;-88
2024/01/10 07:33:57;;;;;;;2.90;2.70;;;-10.10;97.30;;;;;;4983454;28;20524;-86
2024/01/10 07:36:26;;;;;;;2.80;2.60;;;-10.10;97.30;;;;;;4983537;28;20620;-86
2024/01/10 07:38:52;;;;;;;1.67;1.57;;;-10.10;97.30;;;;;;4983616;28;20448;-86
2024/01/10 07:41:18;;;;;;;4.40;3.57;;;-10.10;97.30;;;;;;4983620;28;20449;-87
2024/01/10 07:43:43;;;;;;;1.90;1.80;;;-10.00;97.30;;;;;;4984295;28;20426;-86
2024/01/10 07:46:09;;;;;;;1.40;1.30;;;-10.00;97.30;;;;;;4983459;28;20237;-85
2024/01/10 07:48:35;;;;;;;7.40;3.83;;;-10.00;97.30;;;;;;4982721;28;20493;-88
2024/01/10 07:51:01;;;;;;;3.67;3.30;;;-10.00;97.30;;;;;;4981169;28;20203;-86
2024/01/10 07:53:27;;;;;;;2.03;1.90;;;-9.90;97.30;;;;;;4983669;28;20439;-87
2024/01/10 07:55:52;;;;;;;3.80;3.60;;;-9.90;97.30;;;;;;4982833;28;20187;-88
2024/01/10 07:58:18;;;;;;;2.57;2.37;;;-9.80;97.30;;;;;;4983729;28;20691;-85
2024/01/10 08:00:45;;;;;;;3.90;3.70;;;-9.70;97.30;;;;;;4984017;28;20201;-87
2024/01/10 08:03:10;;;;;;;7.63;4.43;;;-9.70;97.30;;;;;;4982596;28;20215;-85
2024/01/10 08:05:36;;;;;;;19.83;3.63;;;-9.60;97.30;;;;;;4983621;28;20415;-88
2024/01/10 08:08:01;;;;;;;2.83;2.63;;;-9.50;97.30;;;;;;4987703;28;20681;-86
2024/01/10 08:10:29;;;;;;;1.40;1.30;;;-9.40;97.30;;;;;;4963579;28;20217;-86
2024/01/10 08:12:56;;;;;;;1.77;1.67;;;-9.40;97.30;;;;;;4974364;28;20211;-86
2024/01/10 08:15:22;;;;;;;3.00;2.80;;;-9.30;97.30;;;;;;4973575;28;20442;-86
2024/01/10 08:17:48;;;;;;;2.70;2.50;;;-9.30;97.30;;;;;;4973453;28;21015;-85
2024/01/10 08:20:18;;;;;;;3.90;2.77;;;-9.20;97.30;;;;;;4973658;28;20437;-86
2024/01/10 08:22:44;;;;;;;2.47;2.27;;;-9.10;97.30;;;;;;4973184;28;20205;-87
2024/01/10 08:25:10;;;;;;;2.20;2.00;;;-9.00;97.30;;;;;;4972976;28;20847;-86
2024/01/10 08:27:35;;;;;;;4.90;4.50;;;-9.00;97.30;;;;;;4973242;28;20470;-86
2024/01/10 08:30:04;;;;;;;3.00;2.80;;;-8.90;97.30;;;;;;4974069;28;20258;-86
2024/01/10 08:32:30;;;;;;;2.40;2.20;;;-8.90;97.30;;;;;;4973183;28;20207;-87
2024/01/10 08:34:55;;;;;;;5.67;5.30;;;-8.80;97.30;;;;;;4972869;28;20418;-87
2024/01/10 08:37:21;;;;;;;2.83;2.63;;;-8.80;97.30;;;;;;4973284;28;20188;-86
2024/01/10 08:39:47;;;;;;;4.53;4.23;;;-8.70;97.30;;;;;;4976362;28;20198;-86
2024/01/10 08:42:13;;;;;;;1.60;1.50;;;-8.70;97.30;;;;;;4976416;28;20443;-86
2024/01/10 08:44:38;;;;;;;1.83;1.70;;;-8.70;97.30;;;;;;4977575;28;20553;-86
2024/01/10 08:47:04;;;;;;;4.97;4.67;;;-8.70;97.30;;;;;;4981361;28;20201;-86
2024/01/10 08:49:29;;;;;;;14.27;4.20;;;-8.60;97.30;;;;;;4977327;28;20523;-87
2024/01/10 08:51:55;;;;;;;1.67;1.57;;;-8.50;97.30;;;;;;4976917;28;20416;-88
2024/01/10 08:54:22;;;;;;;8.90;4.87;;;-8.50;97.30;;;;;;4991620;28;20639;-86
2024/01/10 08:56:48;;;;;;;11.80;2.60;;;-8.40;97.30;;;;;;4976441;28;20181;-86
2024/01/10 08:59:13;;;;;;;2.50;1.87;;;-8.30;97.30;;;;;;4976865;28;20520;-87
2024/01/10 09:01:39;;;;;;;1.87;1.77;;;-8.20;97.30;;;;;;4976536;28;20237;-86
2024/01/10 09:04:05;;;;;;;5.10;3.97;;;-8.10;97.30;;;;;;4989366;28;20528;-86
2024/01/10 09:06:32;;;;;;;2.03;1.67;;;-8.10;97.30;;;;;;4988029;28;20254;-86
2024/01/10 09:08:58;;;;;;;3.83;2.20;;;-8.10;97.30;;;;;;4982168;28;20433;-86
2024/01/10 09:11:24;;;;;;;3.20;3.00;;;-8.10;97.30;;;;;;4987839;28;20447;-86
2024/01/10 09:13:50;;;;;;;9.47;4.00;;;-8.00;97.30;;;;;;4990563;28;20186;-86
2024/01/10 09:16:16;;;;;;;14.37;3.17;;;-7.90;97.30;;;;;;4992770;28;20432;-86
2024/01/10 09:18:42;;;;;;;3.03;2.83;;;-7.90;97.30;;;;;;4978920;28;20191;-86
2024/01/10 09:21:07;;;;;;;2.30;2.10;;;-7.80;97.30;;;;;;4985235;28;20447;-86
2024/01/10 09:23:33;;;;;;;18.20;3.93;;;-7.80;97.30;;;;;;4984919;28;20895;-86
2024/01/10 09:25:58;;;;;;;2.53;2.23;;;-7.70;97.30;;;;;;4983854;28;20189;-87
2024/01/10 09:28:24;;;;;;;4.07;3.87;;;-7.70;97.30;;;;;;4988375;28;20219;-86
2024/01/10 09:30:51;;;;;;;2.47;2.30;;;-7.60;97.30;;;;;;4996430;28;20207;-86
2024/01/10 09:33:17;;;;;;;3.73;3.63;;;-7.50;97.30;;;;;;4982338;28;20197;-85
2024/01/10 09:35:42;;;;;;;2.07;1.93;;;-7.40;97.30;;;;;;4969544;28;20468;-86
2024/01/10 09:38:08;;;;;;;9.07;3.87;;;-7.30;97.30;;;;;;4979346;28;20189;-86
2024/01/10 09:40:33;;;;;;;3.83;2.83;;;-7.30;97.30;;;;;;4991491;28;20194;-87
2024/01/10 09:42:59;;;;;;;2.80;2.60;;;-7.20;97.30;;;;;;4975345;28;20182;-86
2024/01/10 09:45:26;;;;;;;3.93;3.53;;;-7.10;97.30;;;;;;4982665;28;20732;-86
2024/01/10 09:47:55;;;;;;;1.70;1.60;;;-7.10;97.30;;;;;;4974888;28;20217;-86
2024/01/10 09:50:21;;;;;;;2.07;1.93;;;-7.00;97.30;;;;;;4983051;28;20425;-86
2024/01/10 09:52:58;;;;;;;4.77;2.10;;;-7.00;97.30;;;;;;4982055;28;20428;-87
2024/01/10 09:55:26;;;;;;;3.73;3.47;;;-6.90;97.30;;;;;;4983438;28;20450;-87
2024/01/10 09:57:52;;;;;;;5.03;4.50;;;-6.80;97.30;;;;;;4979284;28;20429;-86
2024/01/10 10:00:18;;;;;;;4.03;3.83;;;-6.70;97.30;;;;;;4985380;28;20732;-83
2024/01/10 10:02:46;;;;;;;1.60;1.50;;;-6.70;97.30;;;;;;4982014;28;20468;-86
2024/01/10 10:05:16;;;;;;;2.37;2.20;;;-6.60;97.30;;;;;;4982357;28;20189;-86
2024/01/10 10:07:49;;;;;;;3.83;3.63;;;-6.50;97.30;;;;;;4965595;28;20460;-86
2024/01/10 10:10:16;;;;;;;4.83;4.40;;;-6.50;97.30;;;;;;4972880;28;20413;-87
2024/01/10 10:12:42;;;;;;;4.33;2.63;;;-6.40;97.30;;;;;;4981407;28;20907;-87
2024/01/10 10:15:16;;;;;;;15.57;2.60;;;-6.30;97.30;;;;;;4988968;28;20416;-85
2024/01/10 10:17:47;;;;;;;1.63;1.53;;;-6.30;97.30;;;;;;4974198;28;20421;-87
2024/01/10 10:20:23;;;;;;;2.33;2.13;;;-6.20;97.30;;;;;;4985362;28;20435;-86
2024/01/10 10:23:04;;;;;;;6.73;3.10;;;-6.20;97.30;;;;;;4966804;28;20421;-86
2024/01/10 10:25:39;;;;;;;6.33;3.73;;;-6.00;97.30;;;;;;4983758;28;20425;-88
2024/01/10 10:28:04;;;;;;;2.63;2.43;;;-5.90;97.30;;;;;;4979293;28;20990;-87
2024/01/10 10:30:31;;;;;;;2.40;2.20;;;-5.80;97.30;;;;;;4966867;28;20476;-87
2024/01/10 10:32:57;;;;;;;2.97;2.77;;;-5.70;97.30;;;;;;4994491;28;20455;-86
2024/01/10 10:35:23;;;;;;;1.80;1.70;;;-5.60;97.30;;;;;;4976278;28;20833;-85
2024/01/10 10:37:50;;;;;;;8.47;3.20;;;-5.50;97.30;;;;;;4973441;28;20189;-86
2024/01/10 10:40:16;;;;;;;2.43;2.23;;;-5.40;97.30;;;;;;4981882;28;20529;-87
2024/01/10 10:42:46;;;;;;;1.93;1.80;;;-5.30;97.30;;;;;;4985505;28;20780;-86
2024/01/10 10:45:16;;;;;;;6.37;4.33;;;-5.20;97.30;;;;;;4994210;28;20483;-86
2024/01/10 10:47:44;;;;;;;3.90;3.73;;;-5.10;97.30;;;;;;4993748;28;20463;-86
2024/01/10 10:50:25;;;;;;;5.20;3.67;;;-5.00;97.30;;;;;;4990426;28;20421;-86
2024/01/10 10:52:51;;;;;;;5.50;4.27;;;-4.90;97.30;;;;;;4974138;28;20489;-86
2024/01/10 10:55:18;;;;;;;6.47;5.13;;;-4.80;97.30;;;;;;4974493;28;20485;-87
2024/01/10 10:57:46;;;;;;;3.70;3.50;;;-4.70;97.30;;;;;;4976032;28;20424;-86
2024/01/10 11:00:18;;;;;;;6.13;2.97;;;-4.60;97.30;;;;;;4984226;28;20562;-86
2024/01/10 11:02:45;;;;;;;20.97;2.80;;;-4.50;97.30;;;;;;4980164;28;20470;-87
2024/01/10 11:05:10;;;;;;;6.93;3.20;;;-4.40;97.30;;;;;;4972876;28;20928;-86
2024/01/10 11:07:37;;;;;;;29.80;3.67;;;-4.30;97.30;;;;;;4972774;28;20454;-87
2024/01/10 11:10:08;;;;;;;5.80;5.27;;;-4.20;97.30;;;;;;4978729;28;20178;-87
2024/01/10 11:13:00;;;;;;;2.50;2.30;;;-4.00;97.30;;;;;;4974521;28;20450;-87
2024/01/10 11:16:03;;;;;;;5.70;3.33;;;-3.70;97.30;;;;;;4973473;28;20520;-87
2024/01/10 11:19:15;;;;;;;5.17;3.33;;;-3.60;97.30;;;;;;4992225;28;20425;-87
2024/01/10 11:22:06;;;;;;;5.77;4.40;;;-3.50;97.30;;;;;;4967780;28;20532;-86
2024/01/10 11:24:32;;;;;;;6.43;2.97;;;-3.40;97.30;;;;;;4972322;28;20426;-88
2024/01/10 11:27:27;;;;;;;11.07;5.80;;;-3.20;97.30;;;;;;4972851;28;20596;-87
2024/01/10 11:29:54;;;;;;;5.20;3.80;;;-3.20;97.30;;;;;;4963667;28;20190;-87
2024/01/10 11:32:25;;;;;;;3.93;2.67;;;-3.10;97.30;;;;;;4984789;28;20437;-87
2024/01/10 11:34:55;;;;;;;4.30;3.33;;;-3.00;97.30;;;;;;4977556;28;20433;-87
2024/01/10 11:37:20;;;;;;;7.10;3.50;;;-3.00;97.30;;;;;;4976573;28;20425;-87
2024/01/10 11:39:46;;;;;;;8.13;2.90;;;-2.90;97.30;;;;;;4981123;28;20434;-87
2024/01/10 11:42:20;;;;;;;9.57;3.60;;;-2.90;97.30;;;;;;4980756;28;20690;-89
2024/01/10 11:44:51;;;;;;;4.53;4.23;;;-2.70;97.30;;;;;;4995475;28;20189;-89
2024/01/10 11:47:20;;;;;;;5.60;4.10;;;-2.60;97.20;;;;;;4985535;28;20461;-88
2024/01/10 11:50:01;;;;;;;7.47;4.20;;;-2.40;96.80;;;;;;4998818;28;20425;-88
2024/01/10 11:52:37;;;;;;;5.23;2.90;;;-2.30;96.60;;;;;;4987498;28;20437;-88
2024/01/10 11:55:04;;;;;;;7.50;5.43;;;-2.10;96.10;;;;;;4982162;28;20418;-88
2024/01/10 11:57:33;;;;;;;4.37;4.03;;;-2.10;95.80;;;;;;4981750;28;20424;-88
2024/01/10 12:00:05;;;;;;;3.20;3.00;;;-2.00;95.20;;;;;;4980094;28;20414;-88
2024/01/10 12:02:31;;;;;;;5.47;3.33;;;-1.90;95.40;;;;;;4988546;28;20942;-88
2024/01/10 12:04:56;;;;;;;5.70;4.50;;;-1.70;95.40;;;;;;4973255;28;20426;-89
2024/01/10 12:07:23;;;;;;;5.00;4.70;;;-1.60;95.70;;;;;;4980435;28;20747;-89
2024/01/10 12:09:49;;;;;;;4.63;4.33;;;-1.50;95.80;;;;;;4984547;28;20240;-89
2024/01/10 12:12:15;;;;;;;14.67;5.90;;;-1.40;95.60;;;;;;4978459;28;20844;-89
2024/01/10 12:14:43;;;;;;;7.57;6.53;;;-1.30;95.00;;;;;;4992878;28;20432;-90
2024/01/10 12:17:08;;;;;;;6.70;5.10;;;-1.30;94.70;;;;;;4982387;28;20188;-90
2024/01/10 12:19:35;;;;;;;5.97;4.43;;;-1.20;94.50;;;;;;4979155;28;20429;-90
2024/01/10 12:22:01;;;;;;;12.03;5.50;;;-1.20;94.70;;;;;;4984648;28;20198;-90
2024/01/10 12:24:30;;;;;;;9.47;6.43;;;-1.00;94.10;;;;;;4984654;28;20429;-90
2024/01/10 12:26:56;;;;;;;4.93;2.80;;;-1.00;93.70;;;;;;4985586;28;20182;-90
2024/01/10 12:29:22;;;;;;;5.53;5.23;;;-0.90;93.80;;;;;;4976122;28;20540;-89
2024/01/10 12:31:48;;;;;;;4.60;4.17;;;-0.90;93.60;;;;;;4984467;28;20509;-90
2024/01/10 12:34:14;;;;;;;3.37;3.17;;;-0.80;93.20;;;;;;4976583;28;20425;-90
2024/01/10 12:36:43;;;;;;;7.53;5.87;;;-0.70;93.00;;;;;;4985898;28;20259;-90
2024/01/10 12:39:10;;;;;;;8.50;4.63;;;-0.60;92.50;;;;;;4985356;28;20810;-91
2024/01/10 12:41:36;;;;;;;15.20;4.63;;;-0.50;92.50;;;;;;4982731;28;20437;-90
2024/01/10 12:44:03;;;;;;;3.87;3.70;;;-0.30;92.00;;;;;;4975073;28;20437;-90
2024/01/10 12:46:30;;;;;;;5.07;4.30;;;-0.30;91.20;;;;;;4983190;28;20424;-89
2024/01/10 12:49:04;;;;;;;16.03;7.70;;;-0.30;90.90;;;;;;4991908;28;20468;-90
2024/01/10 12:51:31;;;;;;;16.43;3.57;;;-0.20;90.90;;;;;;4984320;28;20440;-90
2024/01/10 12:53:58;;;;;;;5.90;3.10;;;0.10;90.80;;;;;;4992243;28;20492;-90
2024/01/10 12:56:25;;;;;;;16.53;5.73;;;0.30;90.10;;;;;;4984210;28;20417;-90
2024/01/10 12:58:51;;;;;;;7.37;4.53;;;0.30;90.10;;;;;;4984891;28;20952;-88
2024/01/10 13:01:16;;;;;;;6.00;5.70;;;0.40;89.60;;;;;;4982582;28;20468;-90
2024/01/10 13:03:42;;;;;;;8.33;5.87;;;0.50;89.40;;;;;;4995939;28;20188;-92
2024/01/10 13:06:09;;;;;;;4.20;4.03;;;0.70;89.10;;;;;;4984092;28;20190;-91
2024/01/10 13:08:35;;;;;;;23.80;8.30;;;0.80;88.80;;;;;;4979551;28;20236;-91
2024/01/10 13:11:00;;;;;;;10.10;6.73;;;0.80;88.40;;;;;;4985183;28;20962;-90
2024/01/10 13:13:26;;;;;;;2.97;2.53;;;0.90;88.20;;;;;;4976922;28;20700;-92
2024/01/10 13:15:51;;;;;;;6.03;4.87;;;1.00;87.90;;;;;;4980079;28;20178;-91
2024/01/10 13:18:18;;;;;;;5.10;4.20;;;1.00;87.90;;;;;;4981713;28;20183;-90
2024/01/10 13:20:44;;;;;;;7.43;6.07;;;0.90;87.60;;;;;;4996278;28;20668;-91
2024/01/10 13:23:10;;;;;;;12.97;5.17;;;0.90;87.20;;;;;;4984848;28;20429;-91
2024/01/10 13:25:37;;;;;;;5.27;4.03;;;0.90;87.00;;;;;;5001745;28;20500;-91
2024/01/10 13:28:03;;;;;;;5.87;5.37;;;0.90;87.20;;;;;;5001834;28;20206;-92
2024/01/10 13:30:28;;;;;;;8.43;4.37;;;1.10;87.30;;;;;;5010702;28;20418;-95
2024/01/10 13:32:54;;;;;;;5.50;5.20;;;1.10;87.50;;;;;;5001736;28;20456;-93
2024/01/10 13:35:19;;;;;;;8.87;8.00;;;1.20;87.30;;;;;;4996815;28;20192;-92
2024/01/10 13:37:46;;;;;;;3.83;3.33;;;1.10;86.80;;;;;;4996129;28;20189;-91
2024/01/10 13:40:12;;;;;;;2.00;1.90;;;0.90;86.60;;;;;;4985017;28;20225;-93
2024/01/10 13:42:39;;;;;;;18.57;5.97;;;0.90;86.90;;;;;;5003982;28;20441;-93
2024/01/10 13:45:12;;;;;;;11.73;6.40;;;0.80;87.00;;;;;;5000893;28;20418;-93
2024/01/10 13:47:38;;;;;;;17.20;4.73;;;0.90;87.20;;;;;;5005356;28;20454;-93
2024/01/10 13:50:07;;;;;;;7.50;5.33;;;1.00;86.80;;;;;;5002444;28;20432;-91
2024/01/10 13:52:33;;;;;;;8.00;6.83;;;1.00;86.30;;;;;;5008077;28;20452;-93
2024/01/10 13:54:59;;;;;;;9.40;7.40;;;1.00;86.20;;;;;;4995660;28;20417;-93
2024/01/10 13:57:29;;;;;;;2.90;2.53;;;1.10;86.40;;;;;;5001794;28;20445;-92
2024/01/10 13:59:59;;;;;;;8.53;6.50;;;1.20;86.00;;;;;;4981459;28;20482;-91
2024/01/10 14:02:28;;;;;;;5.97;5.67;;;1.20;85.50;;;;;;4977579;28;20848;-93
2024/01/10 14:05:37;;;;;;;6.63;3.60;;;1.20;85.30;;;;;;4991055;28;20731;-91
2024/01/10 14:08:10;;;;;;;4.90;3.80;;;1.10;85.20;;;;;;4967122;28;20466;-93
2024/01/10 14:10:40;;;;;;;10.10;4.60;;;1.20;85.30;;;;;;4983759;28;20415;-93
2024/01/10 14:13:11;;;;;;;5.70;5.40;;;1.20;84.90;;;;;;4980796;28;20418;-92
2024/01/10 14:15:41;;;;;;;12.37;5.27;;;1.10;84.70;;;;;;4982301;28;20482;-88
2024/01/10 14:18:10;;;;;;;6.00;4.90;;;1.10;84.70;;;;;;4987336;28;20504;-92
2024/01/10 14:20:41;;;;;;;27.33;5.63;;;1.30;84.90;;;;;;4990251;28;20422;-92
2024/01/10 14:23:10;;;;;;;4.23;4.03;;;1.40;84.70;;;;;;4989425;28;20453;-92
2024/01/10 14:25:38;;;;;;;4.57;4.27;;;1.40;84.50;;;;;;4980338;28;20468;-93
2024/01/10 14:28:20;;;;;;;3.47;2.50;;;1.40;84.40;;;;;;4980292;28;20466;-92
2024/01/10 14:30:48;;;;;;;4.47;4.17;;;1.30;84.40;;;;;;4985557;28;20447;-92
2024/01/10 14:33:19;;;;;;;3.03;2.83;;;1.10;84.40;;;;;;4980357;28;20421;-90
2024/01/10 14:36:07;;;;;;;19.60;5.37;;;0.80;84.80;;;;;;4974506;28;20418;-92
2024/01/10 14:38:41;;;;;;;5.57;4.17;;;0.50;85.00;;;;;;4971613;28;20434;-91
2024/01/10 14:41:09;;;;;;;8.57;4.93;;;0.10;85.90;;;;;;4975107;28;20442;-91
2024/01/10 14:43:57;;;;;;;2.67;2.47;;;-0.30;86.80;;;;;;4980354;28;20487;-91
2024/01/10 14:46:41;;;;;;;6.10;5.37;;;-0.60;87.40;;;;;;4971476;28;20433;-92
2024/01/10 14:49:09;;;;;;;11.30;5.73;;;-0.90;88.10;;;;;;4981295;28;20990;-90
2024/01/10 14:51:42;;;;;;;10.30;5.43;;;-1.00;88.90;;;;;;4975409;28;20448;-90
2024/01/10 14:54:10;;;;;;;4.50;3.90;;;-1.10;89.40;;;;;;4975443;28;20431;-92
2024/01/10 14:56:42;;;;;;;3.67;3.47;;;-1.20;89.60;;;;;;4979558;28;20444;-90
2024/01/10 14:59:10;;;;;;;3.50;3.30;;;-1.30;89.90;;;;;;4974835;28;20858;-92
2024/01/10 15:01:43;;;;;;;2.13;1.97;;;-1.50;90.30;;;;;;4974364;28;20473;-91
2024/01/10 15:04:09;;;;;;;4.53;3.70;;;-1.60;90.80;;;;;;4982883;28;20432;-87
2024/01/10 15:06:34;;;;;;;3.83;2.40;;;-1.80;91.30;;;;;;4974270;28;20422;-90
2024/01/10 15:09:00;;;;;;;11.50;4.63;;;-2.00;91.90;;;;;;4980987;28;20230;-90
2024/01/10 15:11:26;;;;;;;4.43;4.17;;;-2.10;92.50;;;;;;4982537;28;20190;-89
2024/01/10 15:13:51;;;;;;;4.47;4.17;;;-2.20;92.90;;;;;;4973645;28;20852;-90
2024/01/10 15:16:17;;;;;;;11.50;3.63;;;-2.30;93.10;;;;;;4978553;28;20189;-90
2024/01/10 15:18:42;;;;;;;7.90;3.20;;;-2.40;93.20;;;;;;4983963;28;20214;-90
2024/01/10 15:21:08;;;;;;;14.20;4.53;;;-2.50;93.50;;;;;;4973879;28;20289;-90
2024/01/10 15:23:33;;;;;;;4.43;4.13;;;-2.60;93.80;;;;;;4978637;28;20186;-90
2024/01/10 15:25:59;;;;;;;4.63;4.33;;;-2.60;94.20;;;;;;4974274;28;20325;-87
2024/01/10 15:28:24;;;;;;;2.63;2.43;;;-2.60;94.30;;;;;;4973533;28;20681;-90
2024/01/10 15:30:51;;;;;;;2.80;2.60;;;-2.70;94.30;;;;;;4983281;28;20710;-89
2024/01/10 15:33:17;;;;;;;5.40;4.50;;;-2.80;94.50;;;;;;4976390;28;20182;-90
2024/01/10 15:35:43;;;;;;;7.30;5.10;;;-2.90;94.80;;;;;;4973103;28;20445;-90
2024/01/10 15:38:09;;;;;;;20.87;7.57;;;-3.00;95.10;;;;;;4977670;28;20450;-90
2024/01/10 15:40:34;;;;;;;9.50;5.27;;;-3.00;95.30;;;;;;4977043;28;20182;-90
2024/01/10 15:43:00;;;;;;;9.10;5.87;;;-3.10;95.60;;;;;;4976175;28;20171;-90
2024/01/10 15:45:26;;;;;;;14.77;4.60;;;-3.10;95.90;;;;;;4979434;28;20274;-91
2024/01/10 15:47:51;;;;;;;12.83;6.00;;;-3.20;96.10;;;;;;4973141;28;20190;-90
2024/01/10 15:50:17;;;;;;;9.10;7.20;;;-3.20;96.30;;;;;;4971318;28;20442;-90
2024/01/10 15:52:44;;;;;;;14.27;4.27;;;-3.30;96.60;;;;;;4978966;28;20669;-90
2024/01/10 15:55:09;;;;;;;15.67;4.97;;;-3.30;96.80;;;;;;4974525;28;20232;-89
2024/01/10 15:57:35;;;;;;;3.83;3.63;;;-3.40;96.90;;;;;;4979176;28;20429;-89
2024/01/10 16:00:01;;;;;;;7.80;4.17;;;-3.40;97.10;;;;;;4974570;28;20197;-90
2024/01/10 16:02:27;;;;;;;12.57;7.47;;;-3.40;97.30;;;;;;4974523;28;20730;-90
2024/01/10 16:04:53;;;;;;;7.83;5.03;;;-3.50;97.30;;;;;;4974491;28;20190;-88
2024/01/10 16:07:20;;;;;;;4.07;3.83;;;-3.50;97.30;;;;;;4974593;28;20468;-87
2024/01/10 16:09:45;;;;;;;2.93;2.70;;;-3.50;97.30;;;;;;4978750;28;20457;-89
2024/01/10 16:12:11;;;;;;;5.20;3.17;;;-3.60;97.30;;;;;;4974776;28;20749;-92
2024/01/10 16:14:36;;;;;;;9.60;4.30;;;-3.60;97.30;;;;;;4978433;28;20568;-90
2024/01/10 16:17:02;;;;;;;6.90;5.27;;;-3.60;97.30;;;;;;4980838;28;20190;-89
2024/01/10 16:19:28;;;;;;;6.23;2.07;;;-3.60;97.30;;;;;;4971726;28;20178;-90
2024/01/10 16:21:54;;;;;;;3.33;3.13;;;-3.70;97.30;;;;;;4970480;28;20469;-89
2024/01/10 16:24:20;;;;;;;9.17;3.50;;;-3.70;97.30;;;;;;4971101;28;20213;-89
2024/01/10 16:26:45;;;;;;;3.00;2.80;;;-3.70;97.30;;;;;;4978533;28;20504;-88
2024/01/10 16:29:11;;;;;;;3.43;2.80;;;-3.80;97.30;;;;;;4982105;28;20861;-88
2024/01/10 16:31:36;;;;;;;9.70;5.70;;;-3.80;97.30;;;;;;4971639;28;20208;-89
2024/01/10 16:34:02;;;;;;;6.40;5.17;;;-3.80;97.30;;;;;;4970535;28;20640;-86
2024/01/10 16:36:28;;;;;;;2.90;2.70;;;-3.80;97.30;;;;;;4970056;28;20183;-88
2024/01/10 16:38:54;;;;;;;3.63;3.43;;;-3.90;97.30;;;;;;4969703;28;20564;-90
2024/01/10 16:41:20;;;;;;;4.43;4.13;;;-4.00;97.30;;;;;;4978117;28;20284;-88
2024/01/10 16:43:45;;;;;;;7.13;4.13;;;-4.00;97.30;;;;;;4974908;28;20860;-88
2024/01/10 16:46:11;;;;;;;8.53;5.73;;;-4.10;97.30;;;;;;4974461;28;20196;-90
2024/01/10 16:48:36;;;;;;;4.47;4.20;;;-4.10;97.30;;;;;;4982818;28;20648;-88
2024/01/10 16:51:03;;;;;;;11.73;4.23;;;-4.20;97.30;;;;;;4973757;28;20230;-87
2024/01/10 16:53:28;;;;;;;7.83;4.23;;;-4.30;97.30;;;;;;4981156;28;20178;-89
2024/01/10 16:55:54;;;;;;;15.93;3.80;;;-4.30;97.30;;;;;;4989150;28;20945;-90
2024/01/10 16:58:20;;;;;;;4.13;3.90;;;-4.30;97.30;;;;;;4974754;28;20224;-89
2024/01/10 17:00:45;;;;;;;3.03;2.83;;;-4.30;97.30;;;;;;4976111;28;20680;-89
2024/01/10 17:03:11;;;;;;;50.40;4.83;;;-4.30;97.30;;;;;;4981939;28;20872;-89
2024/01/10 17:05:36;;;;;;;4.47;3.70;;;-4.30;97.30;;;;;;4988099;28;20194;-92
2024/01/10 17:08:03;;;;;;;6.60;5.00;;;-4.40;97.30;;;;;;4984924;28;20237;-89
2024/01/10 17:10:29;;;;;;;19.83;5.67;;;-4.40;97.30;;;;;;4979358;28;20182;-89
2024/01/10 17:12:54;;;;;;;5.40;4.57;;;-4.40;97.30;;;;;;4984897;28;20794;-89
2024/01/10 17:15:20;;;;;;;2.80;2.60;;;-4.40;97.30;;;;;;4986107;28;20256;-89
2024/01/10 17:17:46;;;;;;;5.10;4.80;;;-4.40;97.30;;;;;;4978740;28;20197;-89
2024/01/10 17:20:13;;;;;;;3.07;2.87;;;-4.40;97.30;;;;;;4979219;28;20178;-88
2024/01/10 17:22:39;;;;;;;3.63;3.43;;;-4.40;97.30;;;;;;4973086;28;20453;-88
2024/01/10 17:25:05;;;;;;;16.07;6.90;;;-4.40;97.30;;;;;;4975701;28;20803;-89
2024/01/10 17:27:31;;;;;;;6.23;4.40;;;-4.50;97.30;;;;;;4974008;28;20974;-89
2024/01/10 17:29:58;;;;;;;3.63;2.60;;;-4.50;97.30;;;;;;4973177;28;20421;-90
2024/01/10 17:32:24;;;;;;;6.50;3.10;;;-4.50;97.30;;;;;;4973469;28;20448;-90
2024/01/10 17:34:49;;;;;;;3.90;3.70;;;-4.60;97.30;;;;;;4972793;28;20418;-88
2024/01/10 17:37:15;;;;;;;20.43;4.13;;;-4.70;97.30;;;;;;4971844;28;20422;-86
2024/01/10 17:39:41;;;;;;;3.53;3.33;;;-4.70;97.30;;;;;;4972151;28;20192;-89
2024/01/10 17:42:06;;;;;;;4.50;4.20;;;-4.70;97.30;;;;;;4971957;28;20605;-88
2024/01/10 17:44:36;;;;;;;5.57;3.70;;;-4.80;97.30;;;;;;4971497;28;20193;-89
2024/01/10 17:47:02;;;;;;;3.90;3.30;;;-4.90;97.30;;;;;;4971126;28;20187;-89